Time;durP1;ratioP1;P1;durP2;ratioP2;P2;SDS_P1;SDS_P2;PMS_P1;PMS_P2;Temp;Humidity;BMP_temperature;BMP_pressure;BME280_temperature;BME280_humidity;BME280_pressure;Samples;Min_cycle;Max_cycle;Signal;HPM_P1;HPM_P2
2022/05/31 00:00:00;;;;;;;3.17;1.40;;;;;;;8.73;100.00;100678.63;5210977;28;20037;-73
2022/05/31 00:02:30;;;;;;;3.60;1.40;;;;;;;8.60;100.00;100673.78;5210627;28;20039;-72
2022/05/31 00:05:01;;;;;;;3.15;1.50;;;;;;;8.67;100.00;100672.72;5207542;28;20116;-72
2022/05/31 00:07:31;;;;;;;3.88;1.60;;;;;;;8.75;100.00;100676.00;5208546;28;20033;-72
2022/05/31 00:10:02;;;;;;;3.53;1.33;;;;;;;8.67;100.00;100668.38;5208911;28;20021;-72
2022/05/31 00:12:33;;;;;;;4.30;1.50;;;;;;;8.66;100.00;100669.28;5207162;28;20033;-73
2022/05/31 00:15:05;;;;;;;3.30;1.50;;;;;;;8.50;100.00;100678.38;5210658;28;20025;-72
2022/05/31 00:17:36;;;;;;;2.78;1.50;;;;;;;8.50;100.00;100665.34;5207725;28;20041;-72
2022/05/31 00:20:07;;;;;;;3.05;1.40;;;;;;;8.56;100.00;100661.75;5209962;28;20032;-73
2022/05/31 00:22:39;;;;;;;3.38;1.60;;;;;;;8.47;100.00;100665.44;5208793;28;20403;-72
2022/05/31 00:25:10;;;;;;;3.58;1.77;;;;;;;8.49;100.00;100653.22;5211649;28;20083;-72
2022/05/31 00:27:41;;;;;;;5.32;1.50;;;;;;;8.45;100.00;100653.34;5208675;28;20033;-72
2022/05/31 00:30:13;;;;;;;4.28;1.67;;;;;;;8.50;100.00;100643.66;5211511;28;20032;-72
2022/05/31 00:32:48;;;;;;;3.70;1.58;;;;;;;8.58;100.00;100647.75;5207710;28;20108;-73
2022/05/31 00:35:27;;;;;;;4.32;1.80;;;;;;;8.59;100.00;100648.63;5204598;28;20056;-73
2022/05/31 00:37:59;;;;;;;3.75;1.70;;;;;;;8.44;100.00;100649.03;5209104;28;20029;-72
2022/05/31 00:40:31;;;;;;;2.92;1.58;;;;;;;8.54;100.00;100653.94;5205916;28;20036;-72
2022/05/31 00:43:08;;;;;;;4.40;1.60;;;;;;;8.49;100.00;100662.78;5208258;28;20475;-72
2022/05/31 00:46:01;;;;;;;3.10;1.70;;;;;;;8.34;100.00;100661.44;5207748;28;20564;-72
2022/05/31 00:48:46;;;;;;;4.85;1.70;;;;;;;8.41;100.00;100657.75;5205022;28;20033;-72
2022/05/31 00:51:19;;;;;;;4.13;1.52;;;;;;;8.36;100.00;100657.03;5203643;28;20238;-72
2022/05/31 00:53:54;;;;;;;4.70;2.10;;;;;;;8.31;100.00;100656.31;5206784;28;20504;-70
2022/05/31 00:56:27;;;;;;;4.00;1.60;;;;;;;8.38;100.00;100657.84;5193800;28;20060;-72
2022/05/31 00:59:03;;;;;;;5.70;1.65;;;;;;;8.26;100.00;100665.97;5208377;28;20037;-72
2022/05/31 01:01:43;;;;;;;4.97;1.63;;;;;;;8.40;100.00;100663.03;5208313;28;20041;-72
2022/05/31 01:04:14;;;;;;;4.50;1.52;;;;;;;8.43;100.00;100656.00;5208064;28;20067;-72
2022/05/31 01:06:44;;;;;;;2.45;1.50;;;;;;;8.37;100.00;100653.53;5206314;28;20495;-72
2022/05/31 01:09:15;;;;;;;2.30;1.35;;;;;;;8.38;100.00;100651.78;5213380;28;20017;-72
2022/05/31 01:11:46;;;;;;;3.60;1.50;;;;;;;8.29;100.00;100657.22;5209895;28;20060;-72
2022/05/31 01:14:16;;;;;;;3.75;1.60;;;;;;;8.26;100.00;100655.56;5214324;28;20021;-72
2022/05/31 01:17:08;;;;;;;2.60;1.48;;;;;;;8.24;100.00;100657.31;5211389;28;20036;-73
2022/05/31 01:19:57;;;;;;;3.60;1.20;;;;;;;8.19;100.00;100656.59;5211146;28;20029;-72
2022/05/31 01:22:33;;;;;;;2.33;1.42;;;;;;;8.41;100.00;100657.75;5209334;28;20129;-72
2022/05/31 01:25:22;;;;;;;3.35;1.52;;;;;;;8.36;100.00;100653.59;5212956;28;20112;-72
2022/05/31 01:28:06;;;;;;;2.80;1.30;;;;;;;8.32;100.00;100660.63;5207932;28;20021;-72
2022/05/31 01:31:20;;;;;;;2.70;1.50;;;;;;;8.52;100.00;100652.31;5209897;28;20108;-72
2022/05/31 01:33:58;;;;;;;2.20;1.38;;;;;;;8.41;100.00;100660.38;5212015;28;20025;-73
2022/05/31 01:36:38;;;;;;;4.60;1.40;;;;;;;8.43;100.00;100656.00;5213238;28;20041;-72
2022/05/31 01:39:15;;;;;;;1.70;1.23;;;;;;;8.09;100.00;100662.03;5213724;28;20029;-72
2022/05/31 01:42:01;;;;;;;5.65;1.58;;;;;;;8.02;100.00;100661.31;5209433;28;20575;-72
2022/05/31 01:44:37;;;;;;;2.40;1.50;;;;;;;7.95;100.00;100654.56;5211655;28;20041;-72
2022/05/31 01:47:07;;;;;;;2.47;1.58;;;;;;;7.96;100.00;100653.66;5213950;28;20033;-72
2022/05/31 01:49:41;;;;;;;3.08;1.50;;;;;;;7.83;100.00;100649.63;5211456;28;20021;-72
2022/05/31 01:52:12;;;;;;;2.63;1.50;;;;;;;7.69;100.00;100656.91;5214161;28;20075;-72
2022/05/31 01:54:43;;;;;;;2.67;1.40;;;;;;;7.62;100.00;100654.47;5210913;28;20493;-72
2022/05/31 01:57:16;;;;;;;3.47;1.65;;;;;;;7.56;100.00;100655.44;5214170;28;20028;-72
2022/05/31 01:59:50;;;;;;;3.08;1.60;;;;;;;7.34;100.00;100658.56;5205852;28;20556;-72
2022/05/31 02:02:21;;;;;;;2.92;1.60;;;;;;;7.36;100.00;100657.63;5212925;28;20279;-72
2022/05/31 02:04:52;;;;;;;3.08;1.67;;;;;;;7.23;100.00;100657.94;5212662;28;20112;-74
2022/05/31 02:07:25;;;;;;;3.75;1.70;;;;;;;7.18;100.00;100646.78;5213174;28;20055;-73
2022/05/31 02:09:55;;;;;;;3.13;1.75;;;;;;;6.98;100.00;100648.94;5207917;28;20037;-74
2022/05/31 02:12:28;;;;;;;2.70;1.63;;;;;;;6.93;100.00;100650.75;5210472;28;20475;-73
2022/05/31 02:14:58;;;;;;;4.35;1.95;;;;;;;6.96;100.00;100644.66;5212515;28;20501;-73
2022/05/31 02:17:29;;;;;;;2.15;1.55;;;;;;;6.91;100.00;100656.88;5211999;28;20425;-73
2022/05/31 02:19:59;;;;;;;2.70;1.80;;;;;;;6.96;100.00;100649.84;5211582;28;20027;-74
2022/05/31 02:22:30;;;;;;;2.58;1.83;;;;;;;6.88;100.00;100646.53;5211923;28;20064;-73
2022/05/31 02:25:00;;;;;;;3.25;1.70;;;;;;;6.93;100.00;100661.16;5212319;28;20044;-74
2022/05/31 02:27:31;;;;;;;3.47;1.80;;;;;;;6.86;100.00;100653.50;5211466;28;20021;-74
2022/05/31 02:30:01;;;;;;;4.65;1.50;;;;;;;6.83;100.00;100653.56;5210025;28;20094;-75
2022/05/31 02:32:31;;;;;;;6.57;1.80;;;;;;;6.84;100.00;100657.88;5210943;28;20028;-74
2022/05/31 02:35:03;;;;;;;5.82;1.80;;;;;;;6.96;100.00;100655.03;5210810;28;20371;-73
2022/05/31 02:37:33;;;;;;;2.38;1.70;;;;;;;6.91;100.00;100656.88;5210384;28;20029;-73
2022/05/31 02:40:05;;;;;;;2.95;1.90;;;;;;;6.92;100.00;100662.03;5208262;28;20197;-74
2022/05/31 02:42:41;;;;;;;3.28;2.00;;;;;;;6.96;100.00;100665.44;5207359;28;20033;-73
2022/05/31 02:45:12;;;;;;;4.70;2.10;;;;;;;6.98;100.00;100664.53;5213253;28;20059;-72
2022/05/31 02:47:42;;;;;;;3.53;1.92;;;;;;;6.88;100.00;100669.91;5209961;28;20021;-74
2022/05/31 02:50:12;;;;;;;6.75;2.10;;;;;;;6.92;100.00;100669.81;5211767;28;20112;-75
2022/05/31 02:52:42;;;;;;;3.70;1.80;;;;;;;6.84;100.00;100670.84;5210080;28;20028;-74
2022/05/31 02:55:13;;;;;;;4.50;2.00;;;;;;;6.75;100.00;100665.84;5213379;28;20037;-74
2022/05/31 02:57:43;;;;;;;3.55;2.03;;;;;;;6.65;100.00;100666.91;5209267;28;20090;-74
2022/05/31 03:00:14;;;;;;;3.00;2.05;;;;;;;6.61;100.00;100667.84;5210611;28;20363;-73
2022/05/31 03:02:44;;;;;;;3.67;1.77;;;;;;;6.59;100.00;100664.41;5208923;28;20022;-73
2022/05/31 03:05:15;;;;;;;4.30;1.85;;;;;;;6.70;100.00;100660.75;5213541;28;20116;-73
2022/05/31 03:07:45;;;;;;;3.05;1.90;;;;;;;6.58;100.00;100658.34;5209236;28;20080;-74
2022/05/31 03:10:15;;;;;;;3.00;2.00;;;;;;;6.58;100.00;100666.16;5204372;28;20021;-74
2022/05/31 03:12:47;;;;;;;3.10;2.05;;;;;;;6.49;100.00;100657.66;5207848;28;20075;-74
2022/05/31 03:15:19;;;;;;;4.30;2.00;;;;;;;6.52;100.00;100658.47;5212377;28;20028;-73
2022/05/31 03:18:00;;;;;;;4.35;2.00;;;;;;;6.61;100.00;100654.84;5209658;28;20025;-73
2022/05/31 03:20:38;;;;;;;3.17;1.80;;;;;;;6.59;100.00;100656.63;5210593;28;20039;-74
2022/05/31 03:23:17;;;;;;;3.85;2.08;;;;;;;6.64;100.00;100662.59;5211971;28;20048;-74
2022/05/31 03:25:49;;;;;;;4.70;2.10;;;;;;;6.54;100.00;100655.84;5204123;28;20502;-74
2022/05/31 03:28:21;;;;;;;4.28;1.80;;;;;;;6.46;100.00;100655.13;5210829;28;20036;-73
2022/05/31 03:30:51;;;;;;;4.05;1.90;;;;;;;6.56;100.00;100654.09;5207866;28;20482;-73
2022/05/31 03:33:21;;;;;;;3.65;1.92;;;;;;;6.65;100.00;100653.91;5211680;28;20032;-73
2022/05/31 03:35:51;;;;;;;3.80;2.03;;;;;;;6.58;100.00;100655.75;5210017;28;20044;-73
2022/05/31 03:38:22;;;;;;;3.38;1.80;;;;;;;6.64;100.00;100653.06;5211585;28;20390;-74
2022/05/31 03:41:01;;;;;;;4.78;2.00;;;;;;;6.72;100.00;100650.31;5197735;28;20110;-74
2022/05/31 03:43:33;;;;;;;4.63;2.40;;;;;;;6.84;100.00;100650.06;5203656;28;20017;-74
2022/05/31 03:46:10;;;;;;;5.53;2.83;;;;;;;7.00;100.00;100647.16;5208015;28;20029;-73
2022/05/31 03:48:41;;;;;;;3.95;2.00;;;;;;;7.16;100.00;100647.69;5208726;28;20029;-74
2022/05/31 03:51:12;;;;;;;3.42;1.80;;;;;;;7.03;100.00;100654.03;5211777;28;20078;-73
2022/05/31 03:53:42;;;;;;;3.40;2.00;;;;;;;7.15;100.00;100649.47;5209196;28;20474;-74
2022/05/31 03:56:13;;;;;;;4.20;1.92;;;;;;;6.85;100.00;100651.78;5211934;28;20067;-74
2022/05/31 03:58:44;;;;;;;6.35;2.03;;;;;;;6.87;100.00;100655.22;5206789;28;20375;-74
2022/05/31 04:01:14;;;;;;;3.33;1.85;;;;;;;7.01;100.00;100648.88;5209451;28;20021;-73
2022/05/31 04:03:44;;;;;;;5.65;1.85;;;;;;;6.99;100.00;100654.97;5207962;28;20028;-73
2022/05/31 04:06:15;;;;;;;8.73;2.00;;;;;;;7.19;100.00;100650.22;5212064;28;20032;-74
2022/05/31 04:08:45;;;;;;;4.57;2.03;;;;;;;7.12;100.00;100644.28;5202195;28;20025;-74
2022/05/31 04:11:16;;;;;;;4.85;1.70;;;;;;;7.21;100.00;100651.03;5206644;28;20039;-73
2022/05/31 04:13:46;;;;;;;3.88;1.80;;;;;;;7.69;100.00;100653.47;5207232;28;20017;-73
2022/05/31 04:16:17;;;;;;;4.28;1.88;;;;;;;7.75;100.00;100651.56;5193109;28;20056;-74
2022/05/31 04:18:48;;;;;;;2.78;1.70;;;;;;;7.67;100.00;100658.69;5205742;28;20032;-73
2022/05/31 04:21:18;;;;;;;4.45;1.80;;;;;;;7.54;100.00;100651.19;5209886;28;20028;-71
2022/05/31 04:23:59;;;;;;;6.30;2.03;;;;;;;7.39;100.00;100649.75;5207173;28;20022;-73
2022/05/31 04:26:35;;;;;;;4.95;2.05;;;;;;;7.56;100.00;100650.25;5208378;28;20497;-73
2022/05/31 04:29:05;;;;;;;;;;;;;;;7.71;100.00;100649.91;5208564;28;20060;-74
2022/05/31 04:31:36;;;;;;;10.63;1.90;;;;;;;8.14;100.00;100645.41;5206194;28;19994;-75
2022/05/31 04:34:06;;;;;;;3.20;1.80;;;;;;;8.65;100.00;100648.44;5210925;28;20716;-74
2022/05/31 04:36:36;;;;;;;4.03;1.40;;;;;;;8.92;100.00;100652.94;5209168;28;20108;-74
2022/05/31 04:39:08;;;;;;;3.08;1.50;;;;;;;9.22;100.00;100651.19;5210891;28;20052;-73
2022/05/31 04:41:38;;;;;;;2.92;1.40;;;;;;;10.92;96.41;100638.63;5203005;28;20022;-75
2022/05/31 04:44:09;;;;;;;2.83;1.30;;;;;;;12.57;84.51;100635.50;5212548;28;20029;-74
2022/05/31 04:46:39;;;;;;;6.55;1.20;;;;;;;12.88;82.78;100636.72;5212338;28;20029;-75
2022/05/31 04:49:10;;;;;;;3.37;0.90;;;;;;;12.68;82.59;100638.53;5215073;28;20067;-74
2022/05/31 04:51:41;;;;;;;2.90;1.00;;;;;;;12.55;85.01;100642.59;5212784;28;20276;-73
2022/05/31 04:54:12;;;;;;;2.53;1.10;;;;;;;12.05;86.08;100641.22;5216129;28;20025;-74
2022/05/31 04:56:42;;;;;;;1.65;1.10;;;;;;;13.21;82.52;100634.44;5210319;28;20172;-74
2022/05/31 04:59:12;;;;;;;1.95;0.90;;;;;;;14.26;76.78;100635.47;5213380;28;20471;-74
2022/05/31 05:01:42;;;;;;;2.30;1.10;;;;;;;15.29;70.66;100627.41;5210949;28;20025;-75
2022/05/31 05:04:13;;;;;;;3.17;1.10;;;;;;;15.00;74.84;100628.06;5215631;28;20024;-75
2022/05/31 05:06:43;;;;;;;2.60;0.85;;;;;;;16.32;70.55;100623.28;5210005;28;20290;-74
2022/05/31 05:09:14;;;;;;;2.65;0.95;;;;;;;17.54;68.72;100625.44;5215470;28;20052;-74
2022/05/31 05:11:45;;;;;;;3.40;0.80;;;;;;;18.03;63.87;100633.72;5206407;28;20452;-75
2022/05/31 05:14:15;;;;;;;2.78;1.10;;;;;;;18.69;64.59;100621.34;5208243;28;20274;-74
2022/05/31 05:16:46;;;;;;;2.43;0.90;;;;;;;18.59;64.46;100621.09;5215379;28;20494;-74
2022/05/31 05:19:16;;;;;;;2.28;0.85;;;;;;;17.31;68.78;100633.06;5211032;28;20630;-75
2022/05/31 05:21:47;;;;;;;2.70;1.00;;;;;;;19.35;64.56;100615.75;5215028;28;20039;-74
2022/05/31 05:24:17;;;;;;;2.95;1.00;;;;;;;18.37;67.03;100617.34;5200872;28;20049;-76
2022/05/31 05:26:47;;;;;;;1.70;0.80;;;;;;;19.18;64.30;100613.44;5202191;28;20045;-76
2022/05/31 05:32:08;;;;;;;1.70;1.00;;;;;;;17.56;68.04;100622.69;5208997;28;20108;-74
2022/05/31 05:34:38;;;;;;;3.17;1.10;;;;;;;18.25;63.70;100615.47;5208968;28;20326;-74
2022/05/31 05:37:08;;;;;;;2.63;0.90;;;;;;;16.40;68.44;100628.97;5210811;28;20389;-73
2022/05/31 05:39:39;;;;;;;3.20;1.10;;;;;;;15.60;71.69;100632.72;5206420;28;20029;-75
2022/05/31 05:42:09;;;;;;;2.45;1.00;;;;;;;13.51;82.73;100639.13;5207820;28;20028;-75
2022/05/31 05:44:40;;;;;;;4.30;1.30;;;;;;;13.96;78.46;100636.94;5209123;28;20021;-75
2022/05/31 05:47:20;;;;;;;3.08;1.70;;;;;;;12.66;88.62;100639.50;5194275;28;20025;-73
2022/05/31 05:49:50;;;;;;;2.72;1.30;;;;;;;14.11;81.57;100630.09;5205990;28;20460;-75
2022/05/31 05:52:20;;;;;;;3.87;1.37;;;;;;;15.02;78.01;100628.84;5213604;28;20021;-74
2022/05/31 05:54:50;;;;;;;5.55;1.50;;;;;;;15.38;76.41;100623.44;5206497;28;20391;-70
2022/05/31 05:57:21;;;;;;;3.87;1.50;;;;;;;15.98;76.01;100617.38;5208950;28;20029;-74
2022/05/31 05:59:51;;;;;;;3.47;1.60;;;;;;;15.33;76.55;100623.66;5208534;28;20272;-74
2022/05/31 06:02:30;;;;;;;3.90;1.42;;;;;;;15.55;76.90;100621.56;5210720;28;20381;-74
2022/05/31 06:05:19;;;;;;;2.80;1.25;;;;;;;14.88;78.23;100626.06;5212636;28;20094;-75
2022/05/31 06:08:00;;;;;;;2.35;1.40;;;;;;;14.00;81.45;100629.75;5207359;28;20025;-75
2022/05/31 06:10:41;;;;;;;3.03;1.30;;;;;;;15.31;77.70;100619.41;5207389;28;20038;-75
2022/05/31 06:13:18;;;;;;;3.47;1.50;;;;;;;15.63;75.07;100614.09;5211837;28;20032;-71
2022/05/31 06:15:52;;;;;;;7.32;1.50;;;;;;;15.83;74.53;100615.59;5206957;28;20395;-74
2022/05/31 06:18:35;;;;;;;2.78;1.30;;;;;;;16.40;71.84;100618.41;5212681;28;20036;-74
2022/05/31 06:21:06;;;;;;;2.67;1.27;;;;;;;16.16;73.33;100616.31;5213226;28;20033;-74
2022/05/31 06:23:38;;;;;;;4.13;1.33;;;;;;;16.34;71.83;100616.13;5209555;28;20025;-74
2022/05/31 06:26:08;;;;;;;3.58;1.30;;;;;;;16.58;71.78;100608.59;5211815;28;20040;-75
2022/05/31 06:28:39;;;;;;;3.55;1.40;;;;;;;17.61;68.62;100618.81;5209289;28;20435;-74
2022/05/31 06:31:09;;;;;;;1.73;1.00;;;;;;;17.10;68.42;100618.53;5211918;28;20107;-74
2022/05/31 06:33:39;;;;;;;3.42;1.10;;;;;;;17.90;68.16;100611.66;5210719;28;20030;-75
2022/05/31 06:36:10;;;;;;;3.10;1.10;;;;;;;17.60;67.25;100613.59;5213174;28;20063;-75
2022/05/31 06:38:41;;;;;;;6.75;1.20;;;;;;;16.99;70.32;100611.25;5210527;28;20665;-74
2022/05/31 06:41:12;;;;;;;2.45;0.90;;;;;;;17.23;68.44;100612.41;5208507;28;20065;-74
2022/05/31 06:43:42;;;;;;;3.17;1.08;;;;;;;17.87;66.71;100606.56;5209128;28;20045;-74
2022/05/31 06:46:13;;;;;;;3.50;1.20;;;;;;;18.34;63.97;100604.34;5209765;28;20492;-73
2022/05/31 06:48:43;;;;;;;3.72;1.00;;;;;;;18.49;64.50;100605.94;5208023;28;20502;-74
2022/05/31 06:56:48;;;;;;;5.10;1.10;;;;;;;18.83;62.98;100612.34;5205790;28;20079;-76
2022/05/31 06:56:59;;;;;;;3.20;1.10;;;;;;;17.91;66.05;100610.69;5207571;28;20088;-74
2022/05/31 06:59:29;;;;;;;4.80;1.20;;;;;;;19.75;60.09;100603.13;5211054;28;20075;-74
2022/05/31 07:02:05;;;;;;;2.00;1.08;;;;;;;19.86;60.76;100603.16;5209960;28;20025;-75
2022/05/31 07:04:37;;;;;;;4.07;1.20;;;;;;;19.99;59.84;100606.63;5210568;28;20482;-74
2022/05/31 07:07:07;;;;;;;5.60;1.00;;;;;;;20.81;60.02;100597.66;5210354;28;20493;-74
2022/05/31 07:09:37;;;;;;;5.97;1.57;;;;;;;20.49;59.76;100591.28;5207154;28;20026;-75
2022/05/31 07:12:08;;;;;;;2.30;1.07;;;;;;;20.15;60.31;100596.59;5209508;28;20022;-74
2022/05/31 07:14:38;;;;;;;3.92;1.10;;;;;;;19.64;62.66;100601.22;5208737;28;20370;-75
2022/05/31 07:17:09;;;;;;;2.30;0.80;;;;;;;20.65;58.13;100596.28;5209845;28;20025;-75
2022/05/31 07:19:40;;;;;;;6.07;1.13;;;;;;;21.80;57.99;100595.03;5207389;28;20272;-75
2022/05/31 07:22:10;;;;;;;5.00;1.00;;;;;;;20.75;58.11;100598.13;5210799;28;20027;-76
2022/05/31 07:24:40;;;;;;;2.08;0.73;;;;;;;20.69;57.72;100593.28;5209355;28;20283;-75
2022/05/31 07:27:11;;;;;;;4.47;1.02;;;;;;;21.77;54.54;100585.47;5211198;28;20035;-74
2022/05/31 07:29:42;;;;;;;4.30;1.10;;;;;;;20.74;54.96;100591.13;5208715;28;20506;-75
2022/05/31 07:32:13;;;;;;;3.65;1.10;;;;;;;19.99;61.79;100585.41;5211815;28;20059;-76
2022/05/31 07:34:43;;;;;;;4.88;1.10;;;;;;;20.98;56.37;100583.94;5207117;28;20122;-74
2022/05/31 07:37:14;;;;;;;2.23;0.90;;;;;;;22.08;55.16;100578.50;5212219;28;20397;-75
2022/05/31 07:39:45;;;;;;;3.40;0.88;;;;;;;22.54;56.73;100579.00;5204769;28;20345;-76
2022/05/31 07:42:15;;;;;;;4.90;0.90;;;;;;;21.51;58.41;100577.88;5204893;28;20030;-74
2022/05/31 07:44:45;;;;;;;2.05;0.77;;;;;;;22.57;54.06;100576.94;5212487;28;20275;-76
2022/05/31 07:47:16;;;;;;;2.43;0.80;;;;;;;23.11;51.27;100566.84;5207081;28;20486;-76
2022/05/31 07:49:46;;;;;;;3.10;0.90;;;;;;;21.97;54.04;100568.72;5212828;28;20291;-75
2022/05/31 07:52:17;;;;;;;1.83;0.70;;;;;;;23.33;52.91;100556.88;5208641;28;20287;-75
2022/05/31 07:54:47;;;;;;;1.83;0.90;;;;;;;22.44;53.34;100564.78;5212281;28;20028;-75
2022/05/31 08:00:06;;;;;;;3.88;0.88;;;;;;;22.55;50.94;100562.03;5209739;28;20489;-75
2022/05/31 08:02:37;;;;;;;2.22;0.90;;;;;;;23.16;50.03;100546.84;5210672;28;20452;-76
2022/05/31 08:05:07;;;;;;;1.93;0.60;;;;;;;23.70;49.19;100543.78;5249922;22;20432;-74
2022/05/31 08:07:39;;;;;;;1.85;0.60;;;;;;;23.28;47.58;100545.78;5228948;28;20032;-74
2022/05/31 08:10:10;;;;;;;2.20;0.70;;;;;;;22.73;49.16;100540.88;5228735;28;20032;-74
2022/05/31 08:12:40;;;;;;;1.75;0.60;;;;;;;21.19;50.60;100553.00;5226927;28;20079;-74
2022/05/31 08:15:11;;;;;;;1.70;0.60;;;;;;;22.22;51.15;100546.25;5230880;28;20119;-73
2022/05/31 08:17:42;;;;;;;1.00;0.45;;;;;;;22.77;52.18;100542.28;5231586;28;20025;-74
2022/05/31 08:20:16;;;;;;;2.13;0.50;;;;;;;22.58;49.72;100540.50;5226016;28;20029;-73
2022/05/31 08:22:48;;;;;;;2.75;0.80;;;;;;;24.29;44.43;100529.34;5226680;28;20492;-74
2022/05/31 08:25:18;;;;;;;1.42;0.60;;;;;;;23.32;47.47;100538.31;5228906;28;20077;-73
2022/05/31 08:27:48;;;;;;;2.38;0.63;;;;;;;22.73;48.67;100536.53;5231523;28;20032;-74
2022/05/31 08:30:19;;;;;;;2.28;0.88;;;;;;;23.19;48.82;100532.41;5229199;28;20398;-73
2022/05/31 08:32:49;;;;;;;1.67;0.60;;;;;;;23.86;46.59;100523.56;5232393;28;20052;-74
2022/05/31 08:35:19;;;;;;;1.03;0.53;;;;;;;24.34;46.71;100526.22;5229620;28;20057;-74
2022/05/31 08:37:49;;;;;;;1.38;0.55;;;;;;;23.92;48.42;100523.03;5231729;28;20270;-74
2022/05/31 08:40:20;;;;;;;3.13;0.50;;;;;;;24.67;47.30;100510.59;5227296;28;20036;-74
2022/05/31 08:43:06;;;;;;;1.87;0.70;;;;;;;22.18;49.83;100523.47;5227258;28;20043;-74
2022/05/31 08:45:51;;;;;;;1.00;0.50;;;;;;;23.58;45.64;100513.69;5231136;28;20289;-74
2022/05/31 08:48:32;;;;;;;3.22;0.80;;;;;;;21.65;49.11;100522.63;5225892;28;20498;-73
2022/05/31 08:57:08;;;;;;;5.18;1.00;;;;;;;23.24;48.39;100506.16;5230780;28;20039;-73
2022/05/31 08:59:49;;;;;;;2.03;0.50;;;;;;;24.62;47.46;100501.31;5231104;28;20021;-74
2022/05/31 09:02:39;;;;;;;3.40;0.77;;;;;;;23.85;46.25;100500.53;5224797;28;20031;-74
2022/05/31 09:05:31;;;;;;;3.45;0.80;;;;;;;23.07;46.62;100499.63;5228105;28;20100;-74
2022/05/31 09:08:13;;;;;;;3.47;0.88;;;;;;;22.75;50.44;100496.28;5228192;28;20060;-74
2022/05/31 09:11:02;;;;;;;1.42;0.60;;;;;;;22.53;49.47;100498.25;5227190;28;20028;-73
2022/05/31 09:13:54;;;;;;;2.35;0.90;;;;;;;21.61;52.89;100509.66;5211048;28;20051;-73
2022/05/31 09:16:41;;;;;;;3.22;0.88;;;;;;;22.95;52.15;100491.84;5226302;28;20463;-73
2022/05/31 09:19:43;;;;;;;3.20;1.00;;;;;;;22.91;50.19;100493.09;5227687;28;20028;-73
2022/05/31 09:22:15;;;;;;;3.17;1.83;;;;;;;23.14;49.48;100495.47;5215209;28;20157;-73
2022/05/31 09:24:46;;;;;;;3.08;0.90;;;;;;;24.59;49.97;100488.25;5223640;28;20120;-74
2022/05/31 09:27:24;;;;;;;3.75;1.00;;;;;;;24.08;46.25;100483.22;5231257;28;20178;-74
2022/05/31 09:30:13;;;;;;;3.22;1.38;;;;;;;24.21;47.15;100486.44;5228431;28;20398;-74
2022/05/31 09:32:47;;;;;;;3.47;1.00;;;;;;;23.86;47.34;100480.03;5231252;28;20025;-74
2022/05/31 09:35:36;;;;;;;4.40;1.00;;;;;;;22.85;48.18;100485.66;5228409;28;20052;-73
2022/05/31 09:38:33;;;;;;;2.53;0.90;;;;;;;23.14;45.42;100484.81;5231905;28;20470;-73
2022/05/31 09:41:15;;;;;;;2.60;0.95;;;;;;;23.28;44.74;100476.41;5231912;28;20412;-74
2022/05/31 09:44:07;;;;;;;3.22;0.90;;;;;;;24.11;48.88;100474.94;5226683;28;20021;-74
2022/05/31 09:46:52;;;;;;;2.97;1.35;;;;;;;24.53;47.30;100475.47;5232733;28;20032;-72
2022/05/31 09:49:36;;;;;;;3.00;0.87;;;;;;;25.59;48.05;100472.97;5228634;28;20283;-74
2022/05/31 09:52:14;;;;;;;1.52;0.70;;;;;;;24.99;44.02;100473.59;5231420;28;20311;-74
2022/05/31 09:58:10;;;;;;;1.65;0.90;;;;;;;22.67;45.04;100477.41;5227204;28;20055;-73
2022/05/31 10:01:26;;;;;;;2.85;1.10;;;;;;;22.67;45.65;100472.09;5233502;28;20024;-74
2022/05/31 10:04:08;;;;;;;2.17;0.75;;;;;;;22.41;46.40;100471.81;5127925;28;20051;-74
2022/05/31 10:07:03;;;;;;;2.97;1.00;;;;;;;20.61;49.49;100470.00;5128413;28;20039;-73
2022/05/31 10:09:39;;;;;;;3.47;1.00;;;;;;;20.75;51.06;100466.13;5210349;28;20037;-73
2022/05/31 10:12:10;;;;;;;2.85;0.80;;;;;;;21.75;48.35;100453.53;5230845;28;20036;-73
2022/05/31 10:14:47;;;;;;;1.88;0.70;;;;;;;21.31;51.53;100462.47;5233066;28;20081;-73
2022/05/31 10:17:42;;;;;;;2.47;1.02;;;;;;;21.10;51.02;100460.69;5226413;28;20071;-73
2022/05/31 10:20:21;;;;;;;3.35;1.05;;;;;;;21.41;49.66;100452.75;5230918;28;20025;-73
2022/05/31 10:23:02;;;;;;;2.97;1.10;;;;;;;21.22;50.66;100449.09;5226796;28;20021;-73
2022/05/31 10:25:39;;;;;;;2.92;1.10;;;;;;;20.92;52.49;100451.53;5229593;28;20040;-73
2022/05/31 10:28:39;;;;;;;3.13;0.93;;;;;;;20.34;51.97;100462.38;5232712;28;20528;-72
2022/05/31 10:31:34;;;;;;;3.75;1.15;;;;;;;20.66;54.03;100452.72;5232831;28;20535;-73
2022/05/31 10:34:24;;;;;;;6.85;1.00;;;;;;;20.96;54.16;100440.56;5230770;28;20025;-73
2022/05/31 10:36:57;;;;;;;3.97;1.15;;;;;;;20.61;54.33;100438.13;5228397;28;20628;-73
2022/05/31 10:39:31;;;;;;;4.88;1.15;;;;;;;20.92;54.49;100430.28;5232111;28;20058;-73
2022/05/31 10:42:07;;;;;;;3.90;1.30;;;;;;;20.96;54.45;100426.41;5230561;28;20032;-73
2022/05/31 10:44:44;;;;;;;2.75;0.93;;;;;;;21.59;52.96;100415.81;5230213;28;20422;-73
2022/05/31 10:47:17;;;;;;;2.97;0.88;;;;;;;21.74;54.80;100419.91;5211022;28;20032;-73
2022/05/31 10:49:49;;;;;;;4.20;1.30;;;;;;;20.50;52.98;100414.22;5232320;28;20020;-73
2022/05/31 10:52:35;;;;;;;3.60;1.10;;;;;;;20.45;51.28;100419.88;5230220;28;20394;-73
2022/05/31 10:55:27;;;;;;;3.72;1.10;;;;;;;21.10;51.44;100420.81;5229775;28;20032;-73
2022/05/31 10:58:12;;;;;;;2.15;0.80;;;;;;;21.33;54.38;100415.31;5229043;28;20032;-73
2022/05/31 11:00:55;;;;;;;6.35;1.10;;;;;;;21.64;51.69;100413.66;5230067;28;20540;-73
2022/05/31 11:03:31;;;;;;;2.78;1.17;;;;;;;21.68;51.66;100407.97;5228020;28;20089;-73
2022/05/31 11:06:27;;;;;;;2.83;0.93;;;;;;;21.47;51.25;100411.53;5231487;28;20107;-72
2022/05/31 11:12:41;;;;;;;4.65;1.17;;;;;;;20.56;52.27;100414.59;5203524;28;20106;-72
2022/05/31 11:15:29;;;;;;;3.00;1.10;;;;;;;20.71;55.26;100413.38;5231456;28;20039;-72
2022/05/31 11:18:30;;;;;;;4.47;1.20;;;;;;;20.82;54.92;100400.91;5227482;28;20279;-73
2022/05/31 11:21:23;;;;;;;2.78;1.23;;;;;;;20.86;53.93;100404.22;5229313;28;20367;-73
2022/05/31 11:24:21;;;;;;;4.50;1.10;;;;;;;21.32;53.98;100399.47;5227210;28;20025;-73
2022/05/31 11:26:58;;;;;;;4.70;0.80;;;;;;;21.62;54.87;100404.94;5226665;28;20036;-73
2022/05/31 11:29:59;;;;;;;3.28;1.00;;;;;;;21.53;54.45;100408.34;5230805;28;20170;-73
2022/05/31 11:32:39;;;;;;;2.95;0.90;;;;;;;20.00;52.08;100415.47;5228686;28;20139;-73
2022/05/31 11:35:24;;;;;;;4.55;1.30;;;;;;;20.15;53.53;100410.81;5228043;28;20048;-73
2022/05/31 11:38:22;;;;;;;2.95;1.02;;;;;;;20.45;55.27;100413.75;5226697;28;20031;-72
2022/05/31 11:41:06;;;;;;;1.83;0.90;;;;;;;20.39;54.20;100415.06;5226501;28;20032;-73
2022/05/31 11:44:01;;;;;;;3.35;1.00;;;;;;;20.23;54.34;100413.72;5228084;28;20043;-74
2022/05/31 11:46:40;;;;;;;2.50;1.10;;;;;;;20.64;55.71;100404.19;5228381;28;20033;-72
2022/05/31 11:49:29;;;;;;;2.35;0.90;;;;;;;20.41;54.93;100406.97;5228842;28;20478;-73
2022/05/31 11:52:09;;;;;;;3.80;1.00;;;;;;;20.46;53.93;100404.81;5227852;28;20474;-73
2022/05/31 11:58:05;;;;;;;2.95;1.00;;;;;;;20.24;53.45;100400.34;5229409;28;20086;-73
2022/05/31 12:00:45;;;;;;;4.75;0.90;;;;;;;20.38;55.99;100397.44;5211722;28;20556;-73
2022/05/31 12:03:23;;;;;;;4.50;1.38;;;;;;;20.82;57.40;100386.78;5223448;28;20032;-73
2022/05/31 12:06:02;;;;;;;1.77;0.80;;;;;;;20.89;54.23;100394.16;5231319;28;20032;-73
2022/05/31 12:08:44;;;;;;;1.73;0.80;;;;;;;21.17;53.04;100392.75;5230089;28;20033;-73
2022/05/31 12:11:24;;;;;;;3.15;0.82;;;;;;;20.73;51.51;100382.22;5222277;28;20024;-73
2022/05/31 12:13:55;;;;;;;1.92;0.70;;;;;;;20.54;50.56;100378.47;5229080;28;20025;-73
2022/05/31 12:16:27;;;;;;;2.42;1.00;;;;;;;20.87;55.23;100380.16;5230676;28;20234;-73
2022/05/31 12:19:17;;;;;;;2.55;1.17;;;;;;;21.20;52.83;100369.44;5229552;28;20024;-73
2022/05/31 12:21:55;;;;;;;2.80;0.85;;;;;;;21.02;52.51;100368.28;5224362;28;20032;-73
2022/05/31 12:24:33;;;;;;;3.38;0.98;;;;;;;20.76;49.00;100369.50;5230784;28;20025;-73
2022/05/31 12:27:14;;;;;;;2.25;0.80;;;;;;;20.40;50.62;100358.34;5230197;28;20020;-73